Airfield :
LOGIN :

Register | Disclaimer

   EN    FR    IT 

 










Legend :    VFR   Marginal VFR   IFR   Intensive IFR   Very Intensive IFR
Visi :
Ceiling :
>= 8 km
>= 3000ft
5 to 8 km
1000 to 3000 ft
1500m to 5 km
500 to 1000 ft
800 to 1500m
200 to 500 ft
< 800m
< 200 ft
Symbols :   Thunderstorms  Fog  Heavy snow  Heavy precipitations  Wind > 20 kt
SIGMETs :     Misc.  Thunderstorms  Icing  Turbulence  Mountain Waves  Volcanic Ashes






- Airport Elevation : 47 ft
- IATA code : EPU


EEPU - Parnu

CURRENT METAR :
  • 020720Z AUTO 11010KT 9999 BKN006/// 02/01 Q1022

EXPIRED METARs :
  • 020650Z AUTO 11008KT 9999 BKN005/// 01/01 Q1022
  • 020620Z AUTO 12007KT 9999 SCT005/// BKN065/// 01/01 Q1022
  • 020550Z AUTO 12006KT 9999 BKN005/// BKN067/// 01/01 Q1022
  • 020520Z AUTO 12006KT 9999 FEW005/// BKN068/// 01/01 Q1022
  • 020450Z AUTO 12005KT 9999 FEW005/// SCT068/// 00/00 Q1022
  • 020420Z AUTO 11005KT 9999 FEW068/// M00/M00 Q1021
  • 012050Z AUTO 10008KT 9999 NCD 01/01 Q1021
  • 020350Z AUTO 10005KT 9999 NCD M00/M00 Q1021
  • 020320Z AUTO 11006KT 070V130 9999 NCD 00/00 Q1021
  • 020250Z AUTO 10006KT 9999 NCD 00/00 Q1021

Expired Forecast.



MET'MAP, your aeronautical weather chart ! - Copyright ORBIFLY December 2007 - Disclaimer

ORBIFLY MET'MAP TEAM :

Programming & Development : Alexandra Zaïnal
Original concept : Baudouin d'Aumeries
Technical & hardware support : Manuel Goepfert
Assistance : Marc-Olivier Méhu




SOURCES & CREDITS :

   NOAA